Time;durP1;ratioP1;P1;durP2;ratioP2;P2;SDS_P1;SDS_P2;PMS_P1;PMS_P2;Temp;Humidity;BMP_temperature;BMP_pressure;BME280_temperature;BME280_humidity;BME280_pressure;Samples;Min_cycle;Max_cycle;Signal;HPM_P1;HPM_P2
2022/11/20 00:04:34;;;;;;;25.67;14.67;;;;;;;-0.98;100.00;101337.22;10583012;27;20035;-74
2022/11/20 00:09:35;;;;;;;29.23;15.37;;;;;;;-1.04;100.00;101320.63;10564664;27;20031;-75
2022/11/20 00:14:35;;;;;;;27.10;14.53;;;;;;;-0.91;100.00;101335.50;10582221;28;20028;-74
2022/11/20 00:19:36;;;;;;;24.07;14.60;;;;;;;-0.90;100.00;101329.09;10565714;27;20050;-75
2022/11/20 00:24:36;;;;;;;23.60;13.90;;;;;;;-0.86;100.00;101325.06;10617878;27;20035;-75
2022/11/20 00:29:37;;;;;;;25.30;14.33;;;;;;;-0.83;100.00;101311.19;10624201;27;20039;-74
2022/11/20 00:34:37;;;;;;;26.97;13.60;;;;;;;-0.96;100.00;101291.94;10607076;27;20031;-75
2022/11/20 00:39:38;;;;;;;27.40;15.17;;;;;;;-0.81;100.00;101330.78;10601604;27;20035;-75
2022/11/20 00:44:38;;;;;;;20.13;12.43;;;;;;;-0.85;100.00;101324.03;10581090;27;20487;-74
2022/11/20 00:49:39;;;;;;;21.17;11.27;;;;;;;-0.75;100.00;101334.69;10580022;27;20028;-75
2022/11/20 00:54:39;;;;;;;18.57;11.17;;;;;;;-0.74;100.00;101331.81;10622155;27;20363;-74
2022/11/20 00:59:40;;;;;;;17.57;10.40;;;;;;;-0.79;100.00;101317.94;10630787;27;20039;-74
2022/11/20 01:04:40;;;;;;;18.10;10.57;;;;;;;-0.67;100.00;101322.00;10623768;27;20058;-74
2022/11/20 01:09:41;;;;;;;20.97;10.77;;;;;;;-0.75;100.00;101300.38;10622852;27;20053;-74
2022/11/20 01:14:41;;;;;;;22.05;11.35;;;;;;;-0.81;100.00;101303.75;10594942;27;20519;-73
2022/11/20 01:19:42;;;;;;;22.33;11.32;;;;;;;-0.63;100.00;101307.13;10581389;28;20410;-74
2022/11/20 01:24:42;;;;;;;18.77;11.53;;;;;;;-0.68;100.00;101287.03;10615033;27;20095;-74
2022/11/20 01:29:43;;;;;;;20.53;11.23;;;;;;;-0.64;100.00;101289.22;10606215;27;20110;-69
2022/11/20 01:34:43;;;;;;;21.20;11.73;;;;;;;-0.72;100.00;101277.59;10624553;27;22046;-74
2022/11/20 01:39:43;;;;;;;21.00;13.37;;;;;;;-0.68;100.00;101281.63;10612171;27;20040;-73
2022/11/20 01:44:54;;;;;;;18.77;11.63;;;;;;;-0.67;100.00;101278.75;10561736;28;20035;-73
2022/11/20 01:50:05;;;;;;;21.37;12.17;;;;;;;-0.68;100.00;101276.22;10600303;27;20089;-74
2022/11/20 01:55:08;;;;;;;24.03;13.63;;;;;;;-0.62;100.00;101278.22;10605753;27;20615;-73
2022/11/20 02:00:11;;;;;;;22.13;13.23;;;;;;;-0.79;100.00;101254.94;10605971;27;20156;-73
2022/11/20 02:05:22;;;;;;;28.83;13.07;;;;;;;-0.66;100.00;101264.22;10596547;27;20028;-73
2022/11/20 02:10:23;;;;;;;26.33;12.20;;;;;;;-0.75;100.00;101238.19;10585304;27;20035;-73
2022/11/20 02:15:24;;;;;;;19.07;11.60;;;;;;;-0.62;100.00;101233.13;10595296;27;20035;-73
2022/11/20 02:20:24;;;;;;;20.07;11.53;;;;;;;-0.65;100.00;101255.06;10630983;27;20027;-73
2022/11/20 02:25:25;;;;;;;21.63;11.30;;;;;;;-0.68;100.00;101244.63;10629687;27;20042;-74
2022/11/20 02:30:25;;;;;;;17.90;10.83;;;;;;;-0.87;100.00;101220.63;10631110;27;20031;-73
2022/11/20 02:35:26;;;;;;;17.67;10.50;;;;;;;-0.62;100.00;101253.88;10628873;27;20050;-73
2022/11/20 02:40:26;;;;;;;19.23;10.87;;;;;;;-0.69;100.00;101228.56;10553487;27;20048;-73
2022/11/20 02:45:27;;;;;;;16.42;10.30;;;;;;;-0.66;100.00;101239.88;10527027;28;20043;-71
2022/11/20 02:50:27;;;;;;;16.53;9.97;;;;;;;-0.61;100.00;101234.78;10544499;28;20043;-73
2022/11/20 02:55:28;;;;;;;17.13;9.23;;;;;;;-0.67;100.00;101221.13;10566099;28;20052;-74
2022/11/20 03:00:28;;;;;;;17.37;9.70;;;;;;;-0.57;100.00;101220.94;10587165;27;20559;-73
2022/11/20 03:05:29;;;;;;;18.27;10.27;;;;;;;-0.54;100.00;101217.88;10584812;28;20122;-73
2022/11/20 03:10:29;;;;;;;18.87;10.13;;;;;;;-0.59;100.00;101212.16;10570700;27;20039;-74
2022/11/20 03:15:30;;;;;;;20.33;10.43;;;;;;;-0.62;100.00;101210.63;10621679;27;20047;-74
2022/11/20 03:20:31;;;;;;;20.60;10.83;;;;;;;-0.63;100.00;101209.78;10542044;28;20035;-73
2022/11/20 03:25:32;;;;;;;18.03;10.63;;;;;;;-0.62;100.00;101203.38;10525189;28;20062;-73
2022/11/20 03:30:33;;;;;;;19.13;11.70;;;;;;;-0.69;100.00;101186.13;10524870;28;20032;-73
2022/11/20 03:35:34;;;;;;;18.77;11.63;;;;;;;-1.38;100.00;101109.25;10543102;28;20056;-72
2022/11/20 03:40:35;;;;;;;16.73;9.03;;;;;;;-0.67;100.00;101180.56;10571630;27;20039;-73
2022/11/20 03:45:36;;;;;;;18.27;9.83;;;;;;;-0.62;100.00;101183.56;10526517;28;20040;-71
2022/11/20 03:50:36;;;;;;;17.03;9.20;;;;;;;-0.51;100.00;101185.09;10557595;28;20035;-73
2022/11/20 03:55:36;;;;;;;15.73;9.97;;;;;;;-0.49;100.00;101188.47;10540095;28;20040;-73
2022/11/20 04:00:37;;;;;;;18.90;10.77;;;;;;;-0.48;100.00;101174.75;10556887;28;20390;-72
2022/11/20 04:05:37;;;;;;;19.20;10.17;;;;;;;-0.50;100.00;101163.25;10523077;28;20036;-73
2022/11/20 04:10:38;;;;;;;16.10;9.38;;;;;;;-0.51;100.00;101147.22;10557192;28;20028;-73
2022/11/20 04:15:38;;;;;;;19.67;10.60;;;;;;;-0.55;100.00;101149.41;10562891;27;20055;-73
2022/11/20 04:20:39;;;;;;;16.07;8.97;;;;;;;-0.53;100.00;101155.50;10582765;27;20038;-69
2022/11/20 04:25:39;;;;;;;17.20;9.17;;;;;;;-0.50;100.00;101155.13;10604646;27;20035;-73
2022/11/20 04:30:40;;;;;;;16.17;10.17;;;;;;;-0.42;100.00;101165.09;10625777;27;20031;-73
2022/11/20 04:35:40;;;;;;;16.93;11.03;;;;;;;-0.47;100.00;101148.56;10623874;27;20046;-73
2022/11/20 04:40:41;;;;;;;14.73;9.47;;;;;;;-0.41;100.00;101153.28;10600927;27;20039;-73
2022/11/20 04:45:41;;;;;;;16.10;9.70;;;;;;;-0.37;100.00;101154.59;10580064;27;20052;-73
2022/11/20 04:50:42;;;;;;;15.50;9.13;;;;;;;-0.39;100.00;101162.06;10580750;28;20032;-72
2022/11/20 04:55:42;;;;;;;14.97;8.77;;;;;;;-0.48;100.00;101130.63;10581489;27;20044;-73
2022/11/20 05:00:44;;;;;;;15.10;9.13;;;;;;;-0.36;100.00;101140.03;10582346;27;20058;-73
2022/11/20 05:05:45;;;;;;;19.13;9.93;;;;;;;-0.40;100.00;101122.47;10622625;27;20061;-71
2022/11/20 05:10:45;;;;;;;16.57;10.43;;;;;;;-0.42;100.00;101127.22;10622369;27;20039;-73
2022/11/20 05:15:46;;;;;;;17.23;10.30;;;;;;;-0.37;100.00;101132.09;10589106;27;20027;-71
2022/11/20 05:20:46;;;;;;;17.17;10.13;;;;;;;-0.44;100.00;101126.56;10592719;27;20065;-72
2022/11/20 05:25:47;;;;;;;21.20;10.90;;;;;;;-0.42;100.00;101127.22;10580151;28;20040;-72
2022/11/20 05:30:47;;;;;;;16.70;10.23;;;;;;;-0.46;100.00;101109.66;10580257;28;20422;-72
2022/11/20 05:35:48;;;;;;;19.17;12.03;;;;;;;-0.50;100.00;101100.22;10580050;28;20111;-72
2022/11/20 05:40:49;;;;;;;19.03;10.70;;;;;;;-0.46;100.00;101112.34;10611219;27;20509;-73
2022/11/20 05:45:53;;;;;;;16.45;10.38;;;;;;;-0.46;100.00;101107.78;10612712;27;20035;-73
2022/11/20 05:50:54;;;;;;;17.02;9.85;;;;;;;-0.41;100.00;101107.28;10597411;27;20050;-72
2022/11/20 05:56:05;;;;;;;19.13;10.03;;;;;;;-0.40;100.00;101100.84;10597963;27;20039;-72
2022/11/20 06:01:26;;;;;;;17.20;10.70;;;;;;;-0.34;100.00;101104.69;10587283;27;20047;-72
2022/11/20 06:06:27;;;;;;;17.67;11.30;;;;;;;-0.34;100.00;101092.00;10572431;27;20044;-72
2022/11/20 06:11:27;;;;;;;20.03;11.30;;;;;;;-0.27;100.00;101103.81;10587067;27;20032;-72
2022/11/20 06:16:28;;;;;;;22.07;11.67;;;;;;;-0.33;100.00;101101.84;10587746;27;20092;-72
2022/11/20 06:21:28;;;;;;;22.52;13.68;;;;;;;-0.41;100.00;101093.75;10586717;27;20039;-73
2022/11/20 06:26:29;;;;;;;21.63;12.60;;;;;;;-0.35;100.00;101098.47;10586791;27;20043;-72
2022/11/20 06:31:32;;;;;;;21.47;11.80;;;;;;;-0.49;100.00;101074.88;10568834;27;20454;-72
2022/11/20 06:36:33;;;;;;;19.40;11.10;;;;;;;-0.39;100.00;101097.13;10587640;27;20055;-73
2022/11/20 06:41:33;;;;;;;17.83;11.43;;;;;;;-0.36;100.00;101095.94;10569487;27;20052;-73
2022/11/20 06:46:34;;;;;;;17.83;10.43;;;;;;;-0.44;100.00;101077.88;10587088;27;20047;-73
2022/11/20 06:51:34;;;;;;;17.87;10.17;;;;;;;-0.40;100.00;101095.44;10567528;27;20043;-72
2022/11/20 06:56:34;;;;;;;16.15;9.57;;;;;;;-0.40;100.00;101100.84;10567716;27;20043;-73
2022/11/20 07:01:35;;;;;;;17.23;9.97;;;;;;;-0.40;100.00;101090.03;10565144;28;20032;-72
2022/11/20 07:06:36;;;;;;;19.53;11.07;;;;;;;-0.41;100.00;101088.34;10550422;28;20406;-73
2022/11/20 07:11:36;;;;;;;15.33;9.13;;;;;;;-0.41;100.00;101091.06;10620436;27;20031;-72
2022/11/20 07:16:36;;;;;;;22.10;11.87;;;;;;;-0.42;100.00;101090.19;10607822;27;20035;-72
2022/11/20 07:21:37;;;;;;;19.33;10.17;;;;;;;-0.37;100.00;101097.78;10627998;27;20051;-72
2022/11/20 07:26:37;;;;;;;15.68;9.80;;;;;;;-0.35;100.00;101098.47;10608674;27;20047;-73
2022/11/20 07:31:38;;;;;;;21.83;12.40;;;;;;;-0.43;100.00;101083.09;10608790;27;20391;-73
2022/11/20 07:36:39;;;;;;;15.47;9.20;;;;;;;-0.27;100.00;101101.13;10608667;27;20039;-73
2022/11/20 07:41:39;;;;;;;15.33;9.40;;;;;;;-0.19;100.00;101097.50;10588556;27;20395;-72
2022/11/20 07:46:40;;;;;;;15.55;9.38;;;;;;;-0.10;100.00;101088.34;10585202;27;20047;-72
2022/11/20 07:51:40;;;;;;;15.43;9.07;;;;;;;-0.10;100.00;101073.97;10598560;27;20039;-72
2022/11/20 07:56:41;;;;;;;16.23;9.33;;;;;;;-0.07;100.00;101070.88;10627088;27;20057;-71
2022/11/20 08:01:42;;;;;;;14.20;8.63;;;;;;;0.08;100.00;101088.03;10625219;27;20031;-72
2022/11/20 08:06:42;;;;;;;14.47;9.37;;;;;;;0.08;100.00;101082.59;10608167;27;20054;-71
2022/11/20 08:17:02;;;;;;;21.97;8.27;;;;;;;0.07;100.00;101078.22;10583897;27;20058;-71
2022/11/20 08:22:02;;;;;;;17.03;10.30;;;;;;;0.08;100.00;101088.03;10584455;27;20039;-71
2022/11/20 08:27:03;;;;;;;16.90;10.10;;;;;;;0.14;100.00;101098.13;10583777;27;20067;-71
2022/11/20 08:32:03;;;;;;;12.85;8.45;;;;;;;0.06;100.00;101090.06;10581944;27;20038;-71
2022/11/20 08:37:04;;;;;;;15.90;9.37;;;;;;;0.13;100.00;101092.91;10581268;27;20039;-71
2022/11/20 08:42:08;;;;;;;15.23;8.37;;;;;;;0.14;100.00;101091.88;10583431;27;20027;-71
2022/11/20 08:47:08;;;;;;;12.40;8.20;;;;;;;0.01;100.00;101087.06;10566312;27;20035;-71
2022/11/20 08:52:08;;;;;;;13.40;7.85;;;;;;;0.14;100.00;101102.72;10601115;27;20027;-71
2022/11/20 08:57:09;;;;;;;13.87;8.53;;;;;;;0.22;100.00;101091.81;10625029;27;20657;-72
2022/11/20 09:02:09;;;;;;;14.60;7.30;;;;;;;0.28;100.00;101099.22;10622028;27;20055;-71
2022/11/20 09:07:10;;;;;;;11.98;7.40;;;;;;;0.30;100.00;101080.09;10623442;27;20039;-72
2022/11/20 09:12:10;;;;;;;14.63;8.47;;;;;;;0.40;100.00;101084.22;10574917;27;20483;-71
2022/11/20 09:17:13;;;;;;;15.43;9.13;;;;;;;0.41;100.00;101079.63;10559506;27;20116;-72
2022/11/20 09:22:13;;;;;;;16.20;8.57;;;;;;;0.44;100.00;101082.00;10516457;28;20044;-72
2022/11/20 09:27:14;;;;;;;13.18;7.88;;;;;;;0.46;100.00;101069.13;10496995;28;20032;-72
2022/11/20 09:32:14;;;;;;;15.20;8.87;;;;;;;0.53;100.00;101072.75;10500120;28;20068;-72
2022/11/20 09:37:15;;;;;;;13.97;8.47;;;;;;;0.56;100.00;101068.88;10539484;28;20040;-72
2022/11/20 09:42:28;;;;;;;17.23;9.37;;;;;;;0.58;100.00;101056.81;10538577;28;20048;-71
2022/11/20 09:47:54;;;;;;;13.73;8.30;;;;;;;0.67;100.00;101075.69;10538747;28;20075;-71
2022/11/20 09:53:16;;;;;;;12.83;7.50;;;;;;;0.63;100.00;101064.38;10488622;28;20036;-71
2022/11/20 09:58:25;;;;;;;16.13;8.30;;;;;;;0.55;100.00;101064.47;10537712;28;20123;-71
2022/11/20 10:03:44;;;;;;;15.63;8.88;;;;;;;0.59;100.00;101063.91;10538652;28;20144;-72
2022/11/20 10:08:44;;;;;;;11.50;7.60;;;;;;;0.74;100.00;101065.78;10572577;28;20036;-72
2022/11/20 10:13:47;;;;;;;17.93;8.50;;;;;;;0.81;100.00;101064.03;10570224;27;20039;-73
2022/11/20 10:19:03;;;;;;;11.63;7.53;;;;;;;0.93;100.00;101054.41;10510259;28;20579;-71
2022/11/20 10:24:24;;;;;;;13.63;8.07;;;;;;;1.04;100.00;101052.28;10545487;28;20066;-72
2022/11/20 10:29:35;;;;;;;11.67;7.00;;;;;;;1.09;100.00;101034.38;10568741;27;20028;-72
2022/11/20 10:34:47;;;;;;;14.05;7.55;;;;;;;1.14;100.00;101045.53;10571337;27;20035;-72
2022/11/20 10:39:53;;;;;;;13.10;7.45;;;;;;;1.22;100.00;101006.63;10544934;27;20621;-73
2022/11/20 10:45:01;;;;;;;10.65;6.53;;;;;;;1.42;100.00;100999.53;10615230;27;20436;-72
2022/11/20 10:50:04;;;;;;;10.65;7.15;;;;;;;1.55;100.00;101003.44;10592423;27;20049;-72
2022/11/20 10:55:30;;;;;;;9.77;5.88;;;;;;;1.54;100.00;100993.63;10627638;27;20043;-72
2022/11/20 11:00:31;;;;;;;13.23;7.43;;;;;;;1.39;100.00;100969.25;10596865;27;20264;-73
2022/11/20 11:05:41;;;;;;;11.87;7.40;;;;;;;1.46;100.00;100982.91;10584525;27;20039;-72
2022/11/20 11:10:59;;;;;;;11.63;6.95;;;;;;;1.63;100.00;100972.63;10585302;27;20032;-73
2022/11/20 11:15:59;;;;;;;12.33;7.73;;;;;;;1.75;100.00;100968.38;10567789;27;20050;-72
2022/11/20 11:21:01;;;;;;;12.65;7.43;;;;;;;1.90;100.00;100971.88;10568580;27;20253;-72
2022/11/20 11:26:03;;;;;;;11.43;7.15;;;;;;;1.68;100.00;100908.59;10584953;27;20494;-72
2022/11/20 11:31:04;;;;;;;10.38;7.35;;;;;;;1.82;100.00;100958.44;10585437;27;20039;-73
2022/11/20 11:36:15;;;;;;;12.75;7.40;;;;;;;1.90;100.00;100955.59;10549358;27;20059;-72
2022/11/20 11:41:18;;;;;;;11.00;7.25;;;;;;;1.94;100.00;100942.44;10526186;28;20036;-72
2022/11/20 11:46:33;;;;;;;12.77;6.88;;;;;;;2.00;100.00;100941.66;10563043;27;20047;-71
2022/11/20 11:52:04;;;;;;;10.93;6.30;;;;;;;2.18;100.00;100939.28;10561620;27;20068;-71
2022/11/20 11:57:22;;;;;;;10.45;6.93;;;;;;;2.18;100.00;100923.00;10582123;27;20383;-71
2022/11/20 12:02:31;;;;;;;11.82;6.85;;;;;;;2.26;100.00;100919.31;10624100;27;20107;-71
2022/11/20 12:07:49;;;;;;;11.52;6.10;;;;;;;2.37;100.00;100909.75;10624186;27;20039;-71
2022/11/20 12:12:52;;;;;;;11.15;6.10;;;;;;;2.49;100.00;100908.16;10607666;27;20032;-71
2022/11/20 12:17:52;;;;;;;9.05;5.70;;;;;;;2.53;100.00;100904.00;10625549;27;20039;-72
2022/11/20 12:23:04;;;;;;;9.23;5.85;;;;;;;2.62;100.00;100891.94;10606037;27;20031;-72
2022/11/20 12:28:33;;;;;;;8.55;5.78;;;;;;;2.84;100.00;100891.81;10607286;27;20061;-71
2022/11/20 12:33:58;;;;;;;9.05;5.50;;;;;;;2.93;100.00;100874.25;10624951;27;20054;-72
2022/11/20 12:39:03;;;;;;;8.95;5.85;;;;;;;3.08;100.00;100863.25;10625425;27;20039;-71
2022/11/20 12:50:02;;;;;;;7.15;4.90;;;;;;;3.25;100.00;100858.25;10606270;27;20044;-72
2022/11/20 12:55:25;;;;;;;8.27;5.18;;;;;;;3.31;100.00;100846.53;10602062;27;20358;-72
2022/11/20 13:00:25;;;;;;;5.30;3.97;;;;;;;3.16;100.00;100848.59;10620674;27;20161;-72
2022/11/20 13:05:41;;;;;;;7.85;5.15;;;;;;;3.14;100.00;100846.09;10619919;27;20328;-72
2022/11/20 13:10:56;;;;;;;7.80;4.35;;;;;;;3.29;100.00;100848.63;10623953;27;20043;-71
2022/11/20 13:16:07;;;;;;;8.07;4.70;;;;;;;3.16;100.00;100833.13;10604936;27;20084;-71
2022/11/20 13:21:18;;;;;;;6.65;4.78;;;;;;;3.08;100.00;100846.91;10604945;27;20130;-71
2022/11/20 13:26:22;;;;;;;7.72;4.20;;;;;;;2.94;100.00;100827.00;10621509;27;20051;-71
2022/11/20 13:31:34;;;;;;;11.23;5.10;;;;;;;2.79;100.00;100805.41;10621477;27;20031;-72
2022/11/20 13:36:34;;;;;;;6.57;4.45;;;;;;;2.86;100.00;100800.00;10602497;27;20031;-71
2022/11/20 13:41:39;;;;;;;6.72;4.50;;;;;;;2.97;100.00;100804.00;10595929;27;20043;-70
2022/11/20 13:46:46;;;;;;;6.75;4.05;;;;;;;3.02;100.00;100794.19;10564177;27;20039;-71
2022/11/20 13:51:47;;;;;;;6.72;3.72;;;;;;;3.06;100.00;100799.19;10580067;28;20036;-71
2022/11/20 13:57:09;;;;;;;7.80;4.22;;;;;;;2.93;100.00;100778.25;10580594;28;20039;-72
2022/11/20 14:02:11;;;;;;;10.15;4.28;;;;;;;2.73;100.00;100772.75;10583770;27;20050;-72
2022/11/20 14:07:12;;;;;;;6.25;4.00;;;;;;;2.68;100.00;100777.97;10570248;27;20035;-71
2022/11/20 14:12:15;;;;;;;7.28;4.30;;;;;;;2.50;100.00;100762.25;10554462;27;20093;-71
2022/11/20 14:17:20;;;;;;;7.70;4.80;;;;;;;2.43;100.00;100768.50;10570866;27;20070;-71
2022/11/20 14:22:21;;;;;;;5.72;4.18;;;;;;;2.28;100.00;100775.13;10587971;28;20047;-72
2022/11/20 14:27:22;;;;;;;7.65;4.80;;;;;;;2.11;100.00;100763.75;10587782;27;20039;-71
2022/11/20 14:32:25;;;;;;;7.63;4.55;;;;;;;2.08;100.00;100770.41;10570226;27;20028;-71
2022/11/20 14:37:26;;;;;;;7.82;5.30;;;;;;;1.99;100.00;100753.47;10587147;27;20032;-71
2022/11/20 14:42:27;;;;;;;10.32;6.40;;;;;;;1.93;100.00;100745.28;10587857;27;20032;-72
2022/11/20 14:47:29;;;;;;;9.05;5.20;;;;;;;1.94;100.00;100757.81;10569619;28;20035;-72
2022/11/20 14:52:30;;;;;;;9.57;5.82;;;;;;;1.79;100.00;100742.47;10568653;27;20036;-71
2022/11/20 14:57:33;;;;;;;9.98;6.07;;;;;;;1.65;100.00;100738.00;10586482;27;20079;-71
2022/11/20 15:02:33;;;;;;;8.82;5.43;;;;;;;1.55;100.00;100729.38;10553147;27;20035;-71
2022/11/20 15:07:36;;;;;;;11.07;6.25;;;;;;;1.45;100.00;100729.75;10564914;27;20034;-72
2022/11/20 15:12:56;;;;;;;11.32;5.63;;;;;;;1.27;100.00;100707.72;10536875;27;21313;-71
2022/11/20 15:17:57;;;;;;;10.77;6.43;;;;;;;1.20;100.00;100718.53;10569659;27;20068;-71
2022/11/20 15:22:58;;;;;;;9.13;5.60;;;;;;;1.04;100.00;100710.66;10567567;27;20056;-72
2022/11/20 15:27:58;;;;;;;10.93;5.70;;;;;;;0.97;100.00;100714.16;10584116;27;20051;-71
2022/11/20 15:32:58;;;;;;;9.97;6.23;;;;;;;0.90;100.00;100717.84;10586112;27;20036;-70
2022/11/20 15:37:59;;;;;;;10.13;6.38;;;;;;;0.82;100.00;100716.09;10584159;27;20032;-71
2022/11/20 15:43:02;;;;;;;11.00;7.38;;;;;;;0.73;100.00;100698.28;10584496;27;20032;-72
2022/11/20 15:48:03;;;;;;;10.03;6.70;;;;;;;0.68;100.00;100698.03;10583572;27;20062;-71
2022/11/20 15:53:04;;;;;;;11.70;6.90;;;;;;;0.66;100.00;100694.66;10581401;28;20043;-72
2022/11/20 15:58:04;;;;;;;11.83;6.97;;;;;;;0.60;100.00;100694.44;10567823;28;20039;-72
2022/11/20 16:03:05;;;;;;;12.13;6.43;;;;;;;0.50;100.00;100674.13;10559972;28;20055;-71
2022/11/20 16:08:05;;;;;;;10.65;6.55;;;;;;;0.43;100.00;100674.03;10583481;27;20074;-71
2022/11/20 16:18:31;;;;;;;12.70;7.23;;;;;;;0.27;100.00;100639.94;10600001;27;20465;-72
2022/11/20 16:23:32;;;;;;;14.23;6.77;;;;;;;0.40;100.00;100644.63;10584423;27;20035;-73
2022/11/20 16:28:33;;;;;;;10.88;6.53;;;;;;;0.37;100.00;100643.16;10620891;27;20023;-72
2022/11/20 16:33:33;;;;;;;10.37;6.30;;;;;;;0.46;100.00;100653.88;10587161;27;20080;-72
2022/11/20 16:38:34;;;;;;;13.10;6.80;;;;;;;0.45;100.00;100655.72;10620873;27;20545;-72
2022/11/20 16:43:34;;;;;;;15.37;7.87;;;;;;;0.12;100.00;100607.47;10612028;27;20488;-72
2022/11/20 16:48:35;;;;;;;13.90;7.65;;;;;;;0.37;100.00;100645.00;10602100;27;20505;-72
2022/11/20 16:53:36;;;;;;;14.05;7.70;;;;;;;0.44;100.00;100651.34;10617662;27;20594;-73
2022/11/20 16:58:36;;;;;;;14.23;8.05;;;;;;;0.46;100.00;100645.72;10611642;27;20110;-72
2022/11/20 17:03:37;;;;;;;23.95;10.60;;;;;;;0.45;100.00;100653.00;10620779;27;20066;-72
2022/11/20 17:08:38;;;;;;;10.00;6.90;;;;;;;0.34;100.00;100621.03;10618018;27;20031;-72
2022/11/20 17:13:39;;;;;;;12.87;8.67;;;;;;;0.43;100.00;100635.28;10609646;27;20024;-72
2022/11/20 17:18:39;;;;;;;12.98;8.27;;;;;;;0.31;100.00;100621.41;10604053;27;20032;-72
2022/11/20 17:23:41;;;;;;;13.97;8.17;;;;;;;0.46;100.00;100640.31;10588260;27;20523;-72
2022/11/20 17:28:41;;;;;;;15.30;7.32;;;;;;;0.43;100.00;100624.44;10599671;27;20120;-72
2022/11/20 17:33:43;;;;;;;14.70;8.30;;;;;;;0.38;100.00;100619.63;10603783;27;20082;-73
2022/11/20 17:38:44;;;;;;;12.23;7.73;;;;;;;0.40;100.00;100626.50;10564565;27;20047;-72
2022/11/20 17:43:45;;;;;;;14.57;8.27;;;;;;;0.38;100.00;100612.31;10606164;27;20031;-72
2022/11/20 17:48:46;;;;;;;13.80;8.47;;;;;;;0.39;100.00;100607.72;10614757;27;20043;-72
2022/11/20 17:53:48;;;;;;;13.57;8.88;;;;;;;0.29;100.00;100580.13;10628433;27;20039;-73
2022/11/20 17:58:48;;;;;;;13.82;8.90;;;;;;;0.39;100.00;100586.06;10602923;27;20089;-72
2022/11/20 18:03:49;;;;;;;16.55;9.38;;;;;;;0.40;100.00;100585.06;10575552;27;20478;-72
2022/11/20 18:08:49;;;;;;;15.63;9.23;;;;;;;0.40;100.00;100572.34;10589654;27;20048;-73
2022/11/20 18:19:14;;;;;;;15.07;8.73;;;;;;;0.36;100.00;100570.22;10560730;28;20106;-72
2022/11/20 18:24:15;;;;;;;16.50;9.80;;;;;;;0.33;100.00;100565.19;10585518;27;20048;-72
2022/11/20 18:29:16;;;;;;;18.40;9.70;;;;;;;0.17;100.00;100528.41;10596366;27;20035;-71
2022/11/20 18:34:16;;;;;;;15.20;9.27;;;;;;;0.34;100.00;100545.22;10610831;27;20586;-72
2022/11/20 18:39:17;;;;;;;16.98;10.20;;;;;;;0.25;100.00;100519.28;10628919;27;20043;-73
2022/11/20 18:49:38;;;;;;;14.68;9.40;;;;;;;0.26;100.00;100520.97;10627683;27;20042;-73
2022/11/20 18:54:39;;;;;;;18.38;10.40;;;;;;;0.43;100.00;100545.91;10554615;27;20044;-72
2022/11/20 18:59:41;;;;;;;16.38;9.57;;;;;;;0.47;100.00;100548.00;10587280;27;20028;-73
2022/11/20 19:04:41;;;;;;;19.67;10.03;;;;;;;0.38;100.00;100538.38;10585951;27;20031;-72
2022/11/20 19:09:43;;;;;;;16.27;10.45;;;;;;;0.42;100.00;100542.38;10589357;27;20035;-72
2022/11/20 19:14:44;;;;;;;16.50;10.17;;;;;;;0.44;100.00;100543.00;10560913;27;20023;-72
2022/11/20 19:19:44;;;;;;;19.97;10.70;;;;;;;0.45;100.00;100546.53;10578675;27;20066;-74
2022/11/20 19:24:45;;;;;;;19.53;10.07;;;;;;;0.40;100.00;100533.59;10549649;27;20042;-73
2022/11/20 19:29:45;;;;;;;15.48;9.45;;;;;;;0.38;100.00;100530.25;10583427;27;20039;-72
2022/11/20 19:34:46;;;;;;;15.57;10.15;;;;;;;0.35;100.00;100525.19;10611982;27;20053;-73
2022/11/20 19:39:46;;;;;;;18.30;10.50;;;;;;;0.35;100.00;100534.19;10625917;27;20603;-73
2022/11/20 19:44:47;;;;;;;20.20;11.17;;;;;;;0.30;100.00;100519.56;10598965;27;20093;-72
2022/11/20 19:49:47;;;;;;;16.67;10.97;;;;;;;-0.23;100.00;100431.47;10582978;27;20039;-73
2022/11/20 19:54:48;;;;;;;20.40;10.83;;;;;;;0.33;100.00;100524.56;10584473;27;20031;-73
2022/11/20 19:59:49;;;;;;;20.43;11.47;;;;;;;0.33;100.00;100529.97;10602531;27;20035;-73
2022/11/20 20:04:49;;;;;;;22.87;11.53;;;;;;;0.35;100.00;100538.75;10581828;27;20047;-72
2022/11/20 20:09:50;;;;;;;21.33;11.93;;;;;;;0.32;100.00;100531.84;10580680;27;20099;-71
2022/11/20 20:14:50;;;;;;;23.57;11.80;;;;;;;0.33;100.00;100538.97;10581551;27;20051;-72
2022/11/20 20:19:51;;;;;;;21.70;12.97;;;;;;;0.27;100.00;100530.75;10582658;27;20032;-70
2022/11/20 20:24:51;;;;;;;22.57;12.57;;;;;;;0.34;100.00;100535.22;10564338;27;20387;-71
2022/11/20 20:29:52;;;;;;;19.37;11.90;;;;;;;0.35;100.00;100528.78;10605653;27;20051;-71
2022/11/20 20:34:52;;;;;;;20.50;11.88;;;;;;;0.33;100.00;100529.97;10604365;27;20031;-71
2022/11/20 20:39:53;;;;;;;21.17;11.73;;;;;;;0.27;100.00;100515.38;10616741;27;20077;-71
2022/11/20 20:45:05;;;;;;;20.08;10.75;;;;;;;0.32;100.00;100525.63;10597453;27;20042;-71
2022/11/20 20:50:08;;;;;;;20.50;12.27;;;;;;;0.18;100.00;100520.06;10621621;27;20047;-72
2022/11/20 20:55:08;;;;;;;23.63;12.90;;;;;;;0.16;100.00;100510.47;10622056;27;20054;-72
2022/11/20 21:00:10;;;;;;;24.60;13.27;;;;;;;0.28;100.00;100532.44;10623387;27;20043;-73
2022/11/20 21:05:10;;;;;;;23.75;12.80;;;;;;;0.34;100.00;100537.91;10604970;27;20064;-73
2022/11/20 21:10:11;;;;;;;23.27;12.50;;;;;;;0.33;100.00;100543.53;10620436;27;20035;-73
2022/11/20 21:15:11;;;;;;;20.67;12.10;;;;;;;0.36;100.00;100521.47;10622877;27;20034;-72
2022/11/20 21:25:31;;;;;;;19.20;12.13;;;;;;;0.35;100.00;100514.38;10610256;27;20035;-74
2022/11/20 21:30:32;;;;;;;23.00;12.15;;;;;;;0.38;100.00;100524.81;10583460;27;20043;-71
2022/11/20 21:35:33;;;;;;;24.00;13.52;;;;;;;0.19;100.00;100486.56;10620838;27;20036;-71
2022/11/20 21:40:33;;;;;;;22.23;12.93;;;;;;;-0.07;100.00;100449.28;10613163;27;20046;-72
2022/11/20 21:45:34;;;;;;;20.07;12.30;;;;;;;0.27;100.00;100523.50;10580684;28;20035;-72
2022/11/20 21:50:34;;;;;;;23.03;11.80;;;;;;;0.34;100.00;100516.25;10567848;27;20035;-72
2022/11/20 21:55:35;;;;;;;25.37;13.00;;;;;;;0.32;100.00;100512.06;10622914;27;20527;-73
2022/11/20 22:00:35;;;;;;;27.33;13.10;;;;;;;0.23;100.00;100500.56;10603326;27;20042;-73
2022/11/20 22:05:36;;;;;;;23.50;12.25;;;;;;;0.28;100.00;100491.84;10613966;27;20043;-71
2022/11/20 22:10:36;;;;;;;26.23;11.95;;;;;;;0.17;100.00;100485.09;10588887;27;20137;-73
2022/11/20 22:15:37;;;;;;;23.67;12.87;;;;;;;0.12;100.00;100490.25;10607160;27;20040;-73
2022/11/20 22:20:38;;;;;;;25.87;14.47;;;;;;;0.19;100.00;100510.94;10583322;27;20027;-72
2022/11/20 22:25:39;;;;;;;20.33;11.40;;;;;;;0.19;100.00;100527.16;10593076;27;20035;-72
2022/11/20 22:30:39;;;;;;;24.47;12.97;;;;;;;0.06;100.00;100510.78;10625962;27;20028;-73
2022/11/20 22:35:40;;;;;;;23.27;13.47;;;;;;;0.07;100.00;100523.31;10628922;27;20027;-73
2022/11/20 22:40:42;;;;;;;26.80;13.00;;;;;;;0.10;100.00;100544.56;10601349;27;20023;-73
2022/11/20 22:45:44;;;;;;;23.03;13.03;;;;;;;0.11;100.00;100551.66;10628869;27;20038;-72
2022/11/20 22:50:45;;;;;;;24.40;11.93;;;;;;;0.10;100.00;100549.97;10627047;27;20031;-72
2022/11/20 22:55:48;;;;;;;21.17;12.33;;;;;;;0.02;100.00;100539.28;10626702;27;20043;-73
2022/11/20 23:00:48;;;;;;;22.43;13.80;;;;;;;-0.03;100.00;100533.63;10626537;27;20420;-73
2022/11/20 23:05:49;;;;;;;17.27;10.80;;;;;;;-0.01;100.00;100554.03;10627267;27;20031;-73
2022/11/20 23:10:50;;;;;;;23.07;14.17;;;;;;;-0.16;100.00;100549.75;10590214;27;20032;-73
2022/11/20 23:15:50;;;;;;;22.60;12.53;;;;;;;-0.43;100.00;100528.63;10582396;27;20036;-73
2022/11/20 23:20:50;;;;;;;23.07;13.13;;;;;;;-0.67;100.00;100521.69;10562936;27;20047;-71